Terminal Aerodrome Forecast
Issued by NWS

Home | Current Version | Previous Version | Text Only | Print | Product List | Glossary On
Versions: 1 2 3 4 5 6 7 8 9 10 11 12 13 14 15
316
FTUS43 KICT 261735
TAFRSL
TAF
KRSL 261735Z 2618/2718 04011KT P6SM SKC
     FM270100 10007KT P6SM SCT250
     FM270600 11009KT P6SM VCTS BKN120CB
     FM271200 06008KT P6SM BKN020
     FM271600 01013KT P6SM BKN020=

USA.gov is the U.S. government's official web portal to all federal, state and local government web resources and services.